Aviation Digital Data Service (ADDS)

Output produced by METARs form (0147 UTC 20 October 2017)
found at http://aviationweather.gov/adds/metars/
 
KGFL 192334Z 2000/2024 22008KT P6SM FEW060 SCT200 
     FM200800 28006KT P6SM SCT200 
     FM201400 34010KT P6SM SKC 
     FM202300 00000KT P6SM SKC